Time;durP1;ratioP1;P1;durP2;ratioP2;P2;SDS_P1;SDS_P2;PMS_P1;PMS_P2;Temp;Humidity;BMP_temperature;BMP_pressure;BME280_temperature;BME280_humidity;BME280_pressure;Samples;Min_cycle;Max_cycle;Signal;HPM_P1;HPM_P2
2022/04/14 00:01:20;;;;;;;;;;;;;;;;;;5095058;28;19909;-71
2022/04/14 00:03:46;;;;;;;;;;;;;;;;;;5094561;28;20465;-72
2022/04/14 00:06:12;;;;;;;;;;;;;;;;;;5094179;28;19930;-72
2022/04/14 00:08:38;;;;;;;;;;;;;;;;;;5094577;28;19953;-71
2022/04/14 00:11:04;;;;;;;;;;;;;;;;;;5094553;28;19927;-71
2022/04/14 00:13:30;;;;;;;;;;;;;;;;;;5094111;28;20369;-72
2022/04/14 00:15:56;;;;;;;;;;;;;;;;;;5094391;28;19916;-71
2022/04/14 00:18:22;;;;;;;;;;;;;;;;;;5075776;28;20275;-71
2022/04/14 00:20:48;;;;;;;;;;;;;;;;;;5094399;28;19908;-72
2022/04/14 00:23:14;;;;;;;;;;;;;;;;;;5094513;28;19915;-71
2022/04/14 00:25:40;;;;;;;;;;;;;;;;;;5093639;28;20356;-71
2022/04/14 00:28:06;;;;;;;;;;;;;;;;;;5094697;28;19965;-71
2022/04/14 00:30:32;;;;;;;;;;;;;;;;;;5094138;28;20372;-71
2022/04/14 00:32:58;;;;;;;;;;;;;;;;;;5093806;28;19909;-71
2022/04/14 00:35:24;;;;;;;;;;;;;;;;;;5075957;28;19931;-72
2022/04/14 00:37:50;;;;;;;;;;;;;;;;;;5094092;28;19908;-72
2022/04/14 00:40:16;;;;;;;;;;;;;;;;;;5093632;28;20375;-72
2022/04/14 00:42:42;;;;;;;;;;;;;;;;;;5094395;28;19908;-72
2022/04/14 00:45:09;;;;;;;;;;;;;;;;;;5094038;28;19908;-71
2022/04/14 00:47:35;;;;;;;;;;;;;;;;;;5093831;28;19908;-71
2022/04/14 00:50:01;;;;;;;;;;;;;;;;;;5093931;28;19927;-71
2022/04/14 00:52:27;;;;;;;;;;;;;;;;;;5093885;28;19912;-71
2022/04/14 00:54:53;;;;;;;;;;;;;;;;;;5075448;28;20280;-72
2022/04/14 00:57:19;;;;;;;;;;;;;;;;;;5093896;28;19908;-72
2022/04/14 00:59:45;;;;;;;;;;;;;;;;;;5093904;28;19908;-72
2022/04/14 01:02:11;;;;;;;;;;;;;;;;;;5075336;28;19908;-71
2022/04/14 01:04:37;;;;;;;;;;;;;;;;;;5094212;28;20386;-71
2022/04/14 01:07:03;;;;;;;;;;;;;;;;;;5093848;28;19991;-71
2022/04/14 01:09:29;;;;;;;;;;;;;;;;;;5075287;28;20012;-71
2022/04/14 01:11:55;;;;;;;;;;;;;;;;;;5093844;28;19908;-72
2022/04/14 01:14:21;;;;;;;;;;;;;;;;;;5075558;28;19908;-71
2022/04/14 01:16:47;;;;;;;;;;;;;;;;;;5093282;28;19915;-72
2022/04/14 01:19:13;;;;;;;;;;;;;;;;;;5093663;28;19908;-71
2022/04/14 01:21:39;;;;;;;;;;;;;;;;;;5093277;28;19915;-72
2022/04/14 01:24:07;;;;;;;;;;;;;;;;;;5075483;28;19908;-71
2022/04/14 01:26:36;;;;;;;;;;;;;;;;;;5093694;28;20363;-71
2022/04/14 01:29:02;;;;;;;;;;;;;;;;;;5093488;28;19915;-71
2022/04/14 01:31:28;;;;;;;;;;;;;;;;;;5093572;28;19919;-71
2022/04/14 01:33:54;;;;;;;;;;;;;;;;;;5093637;28;19908;-71
2022/04/14 01:36:20;;;;;;;;;;;;;;;;;;5094203;28;20261;-72
2022/04/14 01:38:46;;;;;;;;;;;;;;;;;;5097586;28;19912;-71
2022/04/14 01:41:12;;;;;;;;;;;;;;;;;;5097362;28;19916;-71
2022/04/14 01:43:38;;;;;;;;;;;;;;;;;;5096914;28;19909;-71
2022/04/14 01:46:08;;;;;;;;;;;;;;;;;;5097395;28;20421;-71
2022/04/14 01:48:34;;;;;;;;;;;;;;;;;;5097537;28;20394;-71
2022/04/14 01:51:00;;;;;;;;;;;;;;;;;;5096569;28;19920;-71
2022/04/14 01:53:26;;;;;;;;;;;;;;;;;;5097320;28;19912;-71
2022/04/14 01:55:52;;;;;;;;;;;;;;;;;;5097071;28;20314;-72
2022/04/14 01:58:18;;;;;;;;;;;;;;;;;;5096621;28;19908;-71
2022/04/14 02:00:44;;;;;;;;;;;;;;;;;;5096968;28;19908;-71
2022/04/14 02:03:10;;;;;;;;;;;;;;;;;;5093523;28;19912;-71
2022/04/14 02:05:36;;;;;;;;;;;;;;;;;;5096316;28;20054;-71
2022/04/14 02:08:02;;;;;;;;;;;;;;;;;;5096712;28;19908;-71
2022/04/14 02:10:28;;;;;;;;;;;;;;;;;;5096537;28;19916;-71
2022/04/14 02:12:54;;;;;;;;;;;;;;;;;;5096237;28;20364;-71
2022/04/14 02:15:20;;;;;;;;;;;;;;;;;;5096599;28;19916;-71
2022/04/14 02:17:46;;;;;;;;;;;;;;;;;;5096246;28;19998;-71
2022/04/14 02:20:12;;;;;;;;;;;;;;;;;;5077939;28;19908;-71
2022/04/14 02:22:38;;;;;;;;;;;;;;;;;;5096290;28;19915;-71
2022/04/14 02:25:04;;;;;;;;;;;;;;;;;;5096181;28;20356;-71
2022/04/14 02:27:30;;;;;;;;;;;;;;;;;;5096375;28;19908;-71
2022/04/14 02:29:56;;;;;;;;;;;;;;;;;;5078148;28;19920;-70
2022/04/14 02:32:22;;;;;;;;;;;;;;;;;;5077781;28;19915;-70
2022/04/14 02:34:48;;;;;;;;;;;;;;;;;;5096505;28;20578;-70
2022/04/14 02:37:14;;;;;;;;;;;;;;;;;;5096256;28;19912;-71
2022/04/14 02:39:40;;;;;;;;;;;;;;;;;;5077670;28;19908;-71
2022/04/14 02:42:06;;;;;;;;;;;;;;;;;;5096145;28;20378;-71
2022/04/14 02:44:32;;;;;;;;;;;;;;;;;;5096397;28;19915;-71
2022/04/14 02:46:58;;;;;;;;;;;;;;;;;;5095587;28;19908;-70
2022/04/14 02:49:24;;;;;;;;;;;;;;;;;;5095724;28;19927;-70
2022/04/14 02:51:50;;;;;;;;;;;;;;;;;;5096241;28;19954;-72
2022/04/14 02:54:16;;;;;;;;;;;;;;;;;;5095512;28;19951;-71
2022/04/14 02:56:42;;;;;;;;;;;;;;;;;;5095866;28;19916;-72
2022/04/14 02:59:08;;;;;;;;;;;;;;;;;;5095672;28;20348;-71
2022/04/14 03:01:34;;;;;;;;;;;;;;;;;;5094936;28;19915;-71
2022/04/14 03:04:00;;;;;;;;;;;;;;;;;;5096265;28;20352;-71
2022/04/14 03:06:26;;;;;;;;;;;;;;;;;;5095665;28;19919;-71
2022/04/14 03:08:52;;;;;;;;;;;;;;;;;;5077091;28;20276;-71
2022/04/14 03:11:18;;;;;;;;;;;;;;;;;;5077360;28;20006;-71
2022/04/14 03:13:44;;;;;;;;;;;;;;;;;;5095506;28;19991;-71
2022/04/14 03:16:11;;;;;;;;;;;;;;;;;;5095131;28;19908;-70
2022/04/14 03:18:37;;;;;;;;;;;;;;;;;;5095467;28;19912;-70
2022/04/14 03:21:03;;;;;;;;;;;;;;;;;;5095344;28;20384;-70
2022/04/14 03:23:29;;;;;;;;;;;;;;;;;;5094944;28;19915;-71
2022/04/14 03:25:55;;;;;;;;;;;;;;;;;;5095337;28;19908;-70
2022/04/14 03:28:21;;;;;;;;;;;;;;;;;;5076725;28;19912;-72
2022/04/14 03:30:47;;;;;;;;;;;;;;;;;;5095142;28;20322;-70
2022/04/14 03:33:13;;;;;;;;;;;;;;;;;;5095167;28;19946;-70
2022/04/14 03:35:39;;;;;;;;;;;;;;;;;;5094760;28;20314;-70
2022/04/14 03:38:05;;;;;;;;;;;;;;;;;;5076933;28;19922;-71
2022/04/14 03:40:31;;;;;;;;;;;;;;;;;;5076838;28;19908;-71
2022/04/14 03:42:57;;;;;;;;;;;;;;;;;;5094667;28;20372;-71
2022/04/14 03:45:23;;;;;;;;;;;;;;;;;;5095008;28;19909;-70
2022/04/14 03:47:49;;;;;;;;;;;;;;;;;;5076702;28;20399;-71
2022/04/14 03:50:15;;;;;;;;;;;;;;;;;;5094136;28;19921;-71
2022/04/14 03:52:41;;;;;;;;;;;;;;;;;;5095192;28;19908;-70
2022/04/14 03:55:07;;;;;;;;;;;;;;;;;;5076559;28;19961;-71
2022/04/14 03:57:33;;;;;;;;;;;;;;;;;;5094326;28;19951;-74
2022/04/14 03:59:59;;;;;;;;;;;;;;;;;;5094215;28;19908;-74
2022/04/14 04:02:25;;;;;;;;;;;;;;;;;;5094653;28;19938;-73
2022/04/14 04:04:51;;;;;;;;;;;;;;;;;;5094154;28;19908;-74
2022/04/14 04:07:17;;;;;;;;;;;;;;;;;;5094874;28;20393;-73
2022/04/14 04:09:43;;;;;;;;;;;;;;;;;;5094412;28;19912;-74
2022/04/14 04:12:09;;;;;;;;;;;;;;;;;;5075773;28;20289;-74
2022/04/14 04:14:35;;;;;;;;;;;;;;;;;;5094644;28;19908;-74
2022/04/14 04:17:01;;;;;;;;;;;;;;;;;;5094345;28;19931;-73
2022/04/14 04:19:27;;;;;;;;;;;;;;;;;;5094043;28;19912;-74
2022/04/14 04:21:53;;;;;;;;;;;;;;;;;;5094322;28;19912;-73
2022/04/14 04:24:19;;;;;;;;;;;;;;;;;;5094260;28;20391;-73
2022/04/14 04:26:45;;;;;;;;;;;;;;;;;;5093852;28;19908;-73
2022/04/14 04:29:11;;;;;;;;;;;;;;;;;;5076077;28;19978;-72
2022/04/14 04:31:37;;;;;;;;;;;;;;;;;;5093794;28;19978;-73
2022/04/14 04:34:03;;;;;;;;;;;;;;;;;;5094527;28;19932;-73
2022/04/14 04:36:29;;;;;;;;;;;;;;;;;;5094108;28;19930;-73
2022/04/14 04:38:58;;;;;;;;;;;;;;;;;;5093683;28;19912;-73
2022/04/14 04:41:24;;;;;;;;;;;;;;;;;;5094435;28;19908;-73
2022/04/14 04:43:50;;;;;;;;;;;;;;;;;;5094049;28;20003;-73
2022/04/14 04:46:16;;;;;;;;;;;;;;;;;;5094016;28;19948;-73
2022/04/14 04:48:42;;;;;;;;;;;;;;;;;;5075895;28;20420;-73
2022/04/14 04:51:08;;;;;;;;;;;;;;;;;;5093710;28;19927;-73
2022/04/14 04:53:34;;;;;;;;;;;;;;;;;;5093488;28;19908;-73
2022/04/14 04:56:00;;;;;;;;;;;;;;;;;;5093929;28;20351;-73
2022/04/14 04:58:26;;;;;;;;;;;;;;;;;;5094464;28;19962;-74
2022/04/14 05:00:53;;;;;;;;;;;;;;;;;;5075327;28;19912;-74
2022/04/14 05:03:21;;;;;;;;;;;;;;;;;;5075783;28;19908;-73
2022/04/14 05:05:47;;;;;;;;;;;;;;;;;;5093904;28;19965;-73
2022/04/14 05:08:13;;;;;;;;;;;;;;;;;;5091931;28;19908;-73
2022/04/14 05:10:39;;;;;;;;;;;;;;;;;;5093517;28;20269;-73
2022/04/14 05:13:05;;;;;;;;;;;;;;;;;;5092767;28;19912;-73
2022/04/14 05:15:31;;;;;;;;;;;;;;;;;;5095575;28;19915;-73
2022/04/14 05:17:57;;;;;;;;;;;;;;;;;;5075647;28;19912;-72
2022/04/14 05:20:23;;;;;;;;;;;;;;;;;;5096600;28;19994;-73
2022/04/14 05:22:49;;;;;;;;;;;;;;;;;;5095307;28;19915;-76
2022/04/14 05:25:15;;;;;;;;;;;;;;;;;;5095386;28;19912;-75
2022/04/14 05:27:42;;;;;;;;;;;;;;;;;;5094101;28;19916;-74
2022/04/14 05:30:08;;;;;;;;;;;;;;;;;;5095920;28;19923;-73
2022/04/14 05:32:34;;;;;;;;;;;;;;;;;;5075954;28;19912;-76
2022/04/14 05:35:00;;;;;;;;;;;;;;;;;;5077720;28;19951;-74
2022/04/14 05:37:26;;;;;;;;;;;;;;;;;;5093389;28;19922;-75
2022/04/14 05:39:52;;;;;;;;;;;;;;;;;;5091983;28;19912;-77
2022/04/14 05:42:18;;;;;;;;;;;;;;;;;;5093150;28;20003;-78
2022/04/14 05:44:44;;;;;;;;;;;;;;;;;;5094297;28;19968;-76
2022/04/14 05:47:10;;;;;;;;;;;;;;;;;;5094500;28;19908;-75
2022/04/14 05:49:36;;;;;;;;;;;;;;;;;;5093442;28;19931;-75
2022/04/14 05:52:03;;;;;;;;;;;;;;;;;;5076681;28;20015;-76
2022/04/14 05:54:29;;;;;;;;;;;;;;;;;;5090582;28;19916;-78
2022/04/14 05:56:55;;;;;;;;;;;;;;;;;;5077792;28;20108;-75
2022/04/14 05:59:21;;;;;;;;;;;;;;;;;;5096250;28;19974;-72
2022/04/14 06:01:47;;;;;;;;;;;;;;;;;;5096174;28;19939;-75
2022/04/14 06:04:13;;;;;;;;;;;;;;;;;;5095941;28;20364;-76
2022/04/14 06:06:39;;;;;;;;;;;;;;;;;;5096290;28;19908;-76
2022/04/14 06:09:05;;;;;;;;;;;;;;;;;;5096373;28;19914;-80
2022/04/14 06:11:31;;;;;;;;;;;;;;;;;;5095801;28;19931;-78
2022/04/14 06:13:57;;;;;;;;;;;;;;;;;;5096679;28;20284;-79
2022/04/14 06:16:23;;;;;;;;;;;;;;;;;;5096041;28;19908;-81
2022/04/14 06:18:49;;;;;;;;;;;;;;;;;;5095835;28;19908;-79
2022/04/14 06:21:15;;;;;;;;;;;;;;;;;;5095497;28;19908;-78
2022/04/14 06:23:41;;;;;;;;;;;;;;;;;;5095347;28;19919;-77
2022/04/14 06:26:07;;;;;;;;;;;;;;;;;;5094320;28;19912;-75
2022/04/14 06:28:34;;;;;;;;;;;;;;;;;;5091392;28;19908;-76
2022/04/14 06:31:00;;;;;;;;;;;;;;;;;;5094719;28;19927;-76
2022/04/14 06:33:30;;;;;;;;;;;;;;;;;;5086773;28;20011;-77
2022/04/14 06:35:56;;;;;;;;;;;;;;;;;;5094847;28;19926;-77
2022/04/14 06:38:24;;;;;;;;;;;;;;;;;;5094524;28;19908;-77
2022/04/14 06:40:50;;;;;;;;;;;;;;;;;;5095131;28;19912;-78
2022/04/14 06:43:16;;;;;;;;;;;;;;;;;;5074598;28;19912;-76
2022/04/14 06:45:42;;;;;;;;;;;;;;;;;;5093404;28;19977;-76
2022/04/14 06:48:09;;;;;;;;;;;;;;;;;;5090250;28;20404;-77
2022/04/14 06:50:35;;;;;;;;;;;;;;;;;;5074600;28;19947;-76
2022/04/14 06:53:01;;;;;;;;;;;;;;;;;;5092131;28;19908;-75
2022/04/14 06:55:27;;;;;;;;;;;;;;;;;;5093201;28;20382;-75
2022/04/14 06:57:53;;;;;;;;;;;;;;;;;;5093153;28;19908;-76
2022/04/14 07:00:21;;;;;;;;;;;;;;;;;;5075071;28;19908;-79
2022/04/14 07:02:47;;;;;;;;;;;;;;;;;;5094049;28;19919;-78
2022/04/14 07:05:13;;;;;;;;;;;;;;;;;;5095007;28;19908;-77
2022/04/14 07:07:39;;;;;;;;;;;;;;;;;;5094354;28;19950;-77
2022/04/14 07:10:05;;;;;;;;;;;;;;;;;;5094606;28;19916;-79
2022/04/14 07:12:31;;;;;;;;;;;;;;;;;;5065471;28;19942;-78
2022/04/14 07:14:57;;;;;;;;;;;;;;;;;;5087090;28;19912;-78
2022/04/14 07:17:23;;;;;;;;;;;;;;;;;;5091243;28;19919;-74
2022/04/14 07:19:50;;;;;;;;;;;;;;;;;;5092180;28;19962;-74
2022/04/14 07:22:17;;;;;;;;;;;;;;;;;;5093599;28;19919;-74
2022/04/14 07:24:43;;;;;;;;;;;;;;;;;;5094111;28;20276;-75
2022/04/14 07:27:10;;;;;;;;;;;;;;;;;;5075959;28;19915;-77
2022/04/14 07:29:36;;;;;;;;;;;;;;;;;;5093912;28;20414;-75
2022/04/14 07:32:02;;;;;;;;;;;;;;;;;;5070955;28;19913;-74
2022/04/14 07:34:28;;;;;;;;;;;;;;;;;;5092499;28;19998;-79
2022/04/14 07:36:54;;;;;;;;;;;;;;;;;;5091553;28;19912;-77
2022/04/14 07:39:20;;;;;;;;;;;;;;;;;;5092406;28;20037;-74
2022/04/14 07:41:46;;;;;;;;;;;;;;;;;;5090453;28;19919;-75
2022/04/14 07:44:12;;;;;;;;;;;;;;;;;;5090388;28;20028;-72
2022/04/14 07:46:38;;;;;;;;;;;;;;;;;;5089879;28;20395;-75
2022/04/14 07:49:05;;;;;;;;;;;;;;;;;;5091859;28;19935;-80
2022/04/14 07:51:31;;;;;;;;;;;;;;;;;;5091288;28;19923;-73
2022/04/14 07:53:57;;;;;;;;;;;;;;;;;;5078140;28;19916;-74
2022/04/14 07:59:38;;;;;;;;;;;;;;;;;;5068833;27;19921;-77
2022/04/14 08:03:11;;;;;;;;;;;;;;;;;;5086885;27;19919;-73
2022/04/14 08:07:00;;;;;;;;;;;;;;;;;;5088780;27;20275;-76
2022/04/14 08:14:43;;;;;;;;;;;;;;;;;;5085761;27;19916;-77
2022/04/14 08:17:09;;;;;;;;;;;;;;;;;;5087323;28;20456;-77
2022/04/14 08:20:58;;;;;;;;;;;;;;;;;;5087316;27;19931;-73
2022/04/14 08:23:24;;;;;;;;;;;;;;;;;;5088682;28;19986;-72
2022/04/14 08:25:50;;;;;;;;;;;;;;;;;;5076825;28;20408;-73
2022/04/14 08:28:16;;;;;;;;;;;;;;;;;;5101680;28;19912;-75
2022/04/14 08:30:42;;;;;;;;;;;;;;;;;;5068907;28;20388;-75
2022/04/14 08:34:08;;;;;;;;;;;;;;;;;;5090252;27;19916;-72
2022/04/14 08:36:34;;;;;;;;;;;;;;;;;;5072387;28;19912;-72
2022/04/14 08:39:00;;;;;;;;;;;;;;;;;;5067836;28;19920;-73
2022/04/14 08:44:25;;;;;;;;;;;;;;;;;;5068675;28;19925;-71
2022/04/14 08:46:51;;;;;;;;;;;;;;;;;;5064362;28;20348;-72
2022/04/14 08:49:17;;;;;;;;;;;;;;;;;;5064111;28;19913;-71
2022/04/14 08:52:15;;;;;;;;;;;;;;;;;;5086985;27;19917;-71
2022/04/14 08:54:43;;;;;;;;;;;;;;;;;;5071985;28;19955;-69
2022/04/14 08:57:09;;;;;;;;;;;;;;;;;;5066773;28;19909;-71
2022/04/14 09:01:18;;;;;;;;;;;;;;;;;;5130941;27;20010;-80
2022/04/14 09:03:44;;;;;;;;;;;;;;;;;;5130897;28;19918;-81
2022/04/14 09:06:49;;;;;;;;;;;;;;;;;;5089527;27;20269;-79
2022/04/14 09:09:15;;;;;;;;;;;;;;;;;;5090829;28;20050;-78
2022/04/14 09:11:41;;;;;;;;;;;;;;;;;;5090493;28;19916;-75
2022/04/14 09:14:07;;;;;;;;;;;;;;;;;;5090170;28;19909;-78
2022/04/14 09:16:33;;;;;;;;;;;;;;;;;;5089844;28;19954;-77
2022/04/14 09:18:59;;;;;;;;;;;;;;;;;;5090180;28;19991;-77
2022/04/14 09:23:49;;;;;;;;;;;;;;;;;;5070916;28;19913;-78
2022/04/14 09:26:22;;;;;;;;;;;;;;;;;;5069546;28;19923;-77
2022/04/14 09:28:48;;;;;;;;;;;;;;;;;;5068018;28;20262;-75
2022/04/14 09:33:18;;;;;;;;;;;;;;;;;;5108384;27;19920;-75
2022/04/14 09:38:16;;;;;;;;;;;;;;;;;;5110031;27;19922;-73
2022/04/14 09:40:43;;;;;;;;;;;;;;;;;;5108833;28;19938;-73
2022/04/14 09:44:32;;;;;;;;;;;;;;;;;;5105388;27;19926;-73
2022/04/14 09:46:58;;;;;;;;;;;;;;;;;;5110241;28;19958;-73
2022/04/14 09:52:08;;;;;;;;;;;;;;;;;;5109559;27;19924;-78
2022/04/14 09:56:24;;;;;;;;;;;;;;;;;;5109998;27;19912;-77
2022/04/14 09:58:52;;;;;;;;;;;;;;;;;;5110992;28;20014;-76
2022/04/14 10:06:36;;;;;;;;;;;;;;;;;;5088577;27;19938;-77
2022/04/14 10:09:02;;;;;;;;;;;;;;;;;;5088510;28;20359;-76
2022/04/14 10:11:44;;;;;;;;;;;;;;;;;;5109307;27;19918;-77
2022/04/14 10:16:10;;;;;;;;;;;;;;;;;;5089058;27;20287;-77
2022/04/14 10:18:36;;;;;;;;;;;;;;;;;;5090248;28;19957;-78
2022/04/14 10:21:02;;;;;;;;;;;;;;;;;;5088319;28;19909;-76
2022/04/14 10:23:28;;;;;;;;;;;;;;;;;;5088321;28;19962;-75
2022/04/14 10:25:54;;;;;;;;;;;;;;;;;;5087308;28;19931;-75
2022/04/14 10:28:40;;;;;;;;;;;;;;;;;;5149958;27;19918;-75
2022/04/14 10:31:06;;;;;;;;;;;;;;;;;;5150232;27;19915;-73
2022/04/14 10:33:33;;;;;;;;;;;;;;;;;;5150102;27;19915;-73
2022/04/14 10:36:26;;;;;;;;;;;;;;;;;;5086766;28;19930;-72
2022/04/14 10:38:53;;;;;;;;;;;;;;;;;;5089835;28;19955;-71
2022/04/14 10:41:19;;;;;;;;;;;;;;;;;;5087917;28;19912;-73
2022/04/14 10:43:45;;;;;;;;;;;;;;;;;;5090242;28;20014;-73
2022/04/14 10:46:14;;;;;;;;;;;;;;;;;;5087717;28;20323;-74
2022/04/14 10:48:40;;;;;;;;;;;;;;;;;;5089011;28;19919;-73
2022/04/14 10:51:36;;;;;;;;;;;;;;;;;;5110568;27;20301;-73
2022/04/14 10:54:03;;;;;;;;;;;;;;;;;;5111195;28;20434;-74
2022/04/14 10:56:29;;;;;;;;;;;;;;;;;;5110677;28;20360;-73
2022/04/14 10:58:55;;;;;;;;;;;;;;;;;;5097492;28;19923;-74
2022/04/14 11:01:21;;;;;;;;;;;;;;;;;;5088975;28;20003;-74
2022/04/14 11:03:48;;;;;;;;;;;;;;;;;;5086840;28;19999;-75
2022/04/14 11:08:18;;;;;;;;;;;;;;;;;;5110388;27;19926;-73
2022/04/14 11:11:27;;;;;;;;;;;;;;;;;;5089308;28;19912;-76
2022/04/14 11:13:53;;;;;;;;;;;;;;;;;;5089286;28;19912;-76
2022/04/14 11:16:19;;;;;;;;;;;;;;;;;;5089068;28;20288;-74
2022/04/14 11:18:45;;;;;;;;;;;;;;;;;;5089500;28;19915;-76
2022/04/14 11:21:11;;;;;;;;;;;;;;;;;;5089079;28;19954;-74
2022/04/14 11:23:37;;;;;;;;;;;;;;;;;;5089452;28;19909;-74
2022/04/14 11:26:03;;;;;;;;;;;;;;;;;;5090739;28;19909;-75
2022/04/14 11:28:30;;;;;;;;;;;;;;;;;;5088973;28;19951;-76
2022/04/14 11:32:49;;;;;;;;;;;;;;;;;;5091294;27;19916;-75
2022/04/14 11:35:18;;;;;;;;;;;;;;;;;;5089746;28;20007;-74
2022/04/14 11:37:45;;;;;;;;;;;;;;;;;;5090887;28;19915;-75
2022/04/14 11:40:11;;;;;;;;;;;;;;;;;;5091198;28;19954;-74
2022/04/14 11:42:37;;;;;;;;;;;;;;;;;;5089410;28;20326;-72
2022/04/14 11:45:03;;;;;;;;;;;;;;;;;;5091062;28;19915;-72
2022/04/14 11:47:29;;;;;;;;;;;;;;;;;;5090968;28;19912;-72
2022/04/14 11:49:55;;;;;;;;;;;;;;;;;;5091144;28;19908;-73
2022/04/14 11:52:21;;;;;;;;;;;;;;;;;;5090945;28;20337;-74
2022/04/14 11:54:49;;;;;;;;;;;;;;;;;;5090973;28;19919;-73
2022/04/14 11:57:15;;;;;;;;;;;;;;;;;;5090792;28;20382;-73
2022/04/14 11:59:41;;;;;;;;;;;;;;;;;;5090550;28;19909;-73
2022/04/14 12:02:10;;;;;;;;;;;;;;;;;;5090052;28;19915;-74
2022/04/14 12:04:36;;;;;;;;;;;;;;;;;;5090924;28;19912;-73
2022/04/14 12:07:02;;;;;;;;;;;;;;;;;;5091204;28;19909;-74
2022/04/14 12:09:28;;;;;;;;;;;;;;;;;;5090344;28;20410;-73
2022/04/14 12:11:54;;;;;;;;;;;;;;;;;;5090609;28;19916;-73
2022/04/14 12:14:20;;;;;;;;;;;;;;;;;;5090613;28;19948;-73
2022/04/14 12:16:46;;;;;;;;;;;;;;;;;;5090175;28;20003;-73
2022/04/14 12:19:12;;;;;;;;;;;;;;;;;;5089200;28;19958;-73
2022/04/14 12:21:38;;;;;;;;;;;;;;;;;;5090458;28;19967;-73
2022/04/14 12:24:04;;;;;;;;;;;;;;;;;;5089952;28;19912;-72
2022/04/14 12:26:32;;;;;;;;;;;;;;;;;;5089111;28;20000;-73
2022/04/14 12:28:59;;;;;;;5.35;2.10;;;;;;;;;;5089345;28;20373;-73
2022/04/14 12:31:28;;;;;;;2.65;1.42;;;;;;;;;;5097050;28;20048;-73
2022/04/14 12:33:55;;;;;;;3.70;1.85;;;;;;;;;;5110328;28;20020;-74
2022/04/14 12:36:32;;;;;;;4.38;1.50;;;;;;;;;;5110198;28;20353;-74
2022/04/14 12:38:58;;;;;;;4.65;1.98;;;;;;;;;;5109337;28;20028;-73
2022/04/14 12:41:24;;;;;;;3.90;1.77;;;;;;;;;;5110239;28;20093;-73
2022/04/14 12:43:51;;;;;;;4.93;2.03;;;;;;;;;;5097774;28;20405;-73
2022/04/14 12:46:28;;;;;;;3.55;1.67;;;;;;;;;;5096393;28;20024;-73
2022/04/14 12:49:00;;;;;;;3.22;1.52;;;;;;;;;;5096462;28;20113;-73
2022/04/14 12:51:28;;;;;;;4.45;1.90;;;;;;;;;;5095892;28;20419;-73
2022/04/14 12:53:55;;;;;;;5.00;1.73;;;;;;;;;;5078147;28;20099;-73
2022/04/14 12:56:21;;;;;;;2.58;1.30;;;;;;;;;;5096291;28;20051;-73
2022/04/14 12:59:06;;;;;;;3.33;1.70;;;;;;;;;;5095810;28;20432;-73
2022/04/14 13:01:44;;;;;;;4.43;2.17;;;;;;;;;;5096124;28;20122;-73
2022/04/14 13:04:11;;;;;;;6.45;2.15;;;;;;;;;;5096017;28;20020;-73
2022/04/14 13:06:37;;;;;;;4.68;2.20;;;;;;;;;;5095726;28;20031;-73
2022/04/14 13:09:13;;;;;;;4.57;1.55;;;;;;;;;;5095925;28;20503;-73
2022/04/14 13:11:41;;;;;;;3.38;1.75;;;;;;;;;;5096226;28;20130;-73
2022/04/14 13:14:17;;;;;;;3.40;1.70;;;;;;;;;;5095493;28;20047;-73
2022/04/14 13:16:48;;;;;;;2.83;1.50;;;;;;;;;;5095967;28;20024;-73
2022/04/14 13:19:15;;;;;;;3.40;1.48;;;;;;;;;;5095390;28;20473;-73
2022/04/14 13:21:41;;;;;;;2.50;1.30;;;;;;;;;;5095740;28;20043;-73
2022/04/14 13:24:08;;;;;;;3.28;1.77;;;;;;;;;;5095743;28;20495;-73
2022/04/14 13:26:34;;;;;;;2.33;1.30;;;;;;;;;;5095445;28;20031;-72
2022/04/14 13:29:01;;;;;;;3.75;1.50;;;;;;;;;;5095648;28;20492;-72
2022/04/14 13:31:28;;;;;;;3.13;1.50;;;;;;;;;;5095585;28;20496;-73
2022/04/14 13:33:54;;;;;;;3.17;1.73;;;;;;;;;;5095410;28;20087;-73
2022/04/14 13:36:20;;;;;;;3.55;1.65;;;;;;;;;;5095448;28;20024;-74
2022/04/14 13:38:47;;;;;;;4.43;1.75;;;;;;;;;;5077210;28;20016;-73
2022/04/14 13:41:13;;;;;;;6.25;3.78;;;;;;;;;;5094925;28;20024;-73
2022/04/14 13:43:40;;;;;;;4.30;2.10;;;;;;;;;;5077117;28;20502;-73
2022/04/14 13:46:06;;;;;;;3.85;1.70;;;;;;;;;;5095255;28;20028;-73
2022/04/14 13:48:33;;;;;;;4.07;1.73;;;;;;;;;;5094785;28;20024;-73
2022/04/14 13:50:59;;;;;;;3.38;1.73;;;;;;;;;;5095010;28;20396;-73
2022/04/14 13:53:29;;;;;;;3.78;1.77;;;;;;;;;;5095023;28;20032;-74
2022/04/14 13:55:56;;;;;;;4.25;1.85;;;;;;;;;;5093710;28;20035;-73
2022/04/14 13:58:22;;;;;;;2.47;1.58;;;;;;;;;;5095099;28;20028;-73
2022/04/14 14:00:49;;;;;;;2.92;1.50;;;;;;;;;;5094967;28;20510;-73
2022/04/14 14:03:16;;;;;;;4.10;1.50;;;;;;;;;;5094470;28;20028;-72
2022/04/14 14:05:42;;;;;;;2.70;1.48;;;;;;;;;;5095141;28;20477;-72
2022/04/14 14:08:09;;;;;;;2.90;1.55;;;;;;;;;;5094309;28;20085;-72
2022/04/14 14:10:36;;;;;;;4.25;1.52;;;;;;;;;;5094684;28;20545;-72
2022/04/14 14:13:03;;;;;;;2.72;1.30;;;;;;;;;;5076321;28;20028;-72
2022/04/14 14:15:29;;;;;;;3.75;1.50;;;;;;;;;;5076159;28;20086;-72
2022/04/14 14:17:56;;;;;;;3.20;1.77;;;;;;;;;;5094565;28;20020;-72
2022/04/14 14:20:22;;;;;;;5.20;1.65;;;;;;;;;;5094560;28;20020;-72
2022/04/14 14:22:49;;;;;;;2.17;1.30;;;;;;;;;;5094206;28;20024;-72
2022/04/14 14:25:15;;;;;;;5.07;1.98;;;;;;;;;;5094448;28;20099;-72
2022/04/14 14:27:41;;;;;;;5.70;1.58;;;;;;;;;;5076292;28;20423;-72
2022/04/14 14:30:09;;;;;;;4.93;2.45;;;;;;;;;;5093950;28;20059;-71
2022/04/14 14:32:36;;;;;;;3.25;1.58;;;;;;;;;;5094189;28;20043;-71
2022/04/14 14:35:03;;;;;;;4.97;2.00;;;;;;;;;;5094316;28;20416;-72
2022/04/14 14:37:29;;;;;;;3.05;1.77;;;;;;;;;;5094090;28;20502;-74
2022/04/14 14:39:55;;;;;;;3.47;1.63;;;;;;;;;;5094156;28;20020;-72
2022/04/14 14:42:22;;;;;;;3.58;2.05;;;;;;;;;;5075919;28;20089;-73
2022/04/14 14:44:48;;;;;;;3.50;1.63;;;;;;;;;;5075565;28;20026;-74
2022/04/14 14:47:14;;;;;;;4.28;1.80;;;;;;;;;;5094089;28;20034;-72
2022/04/14 14:49:40;;;;;;;4.32;1.40;;;;;;;;;;5094148;28;20024;-74
2022/04/14 14:52:07;;;;;;;6.15;1.60;;;;;;;;;;5093725;28;20028;-73
2022/04/14 14:54:33;;;;;;;3.28;1.73;;;;;;;;;;5094115;28;20024;-74
2022/04/14 14:57:00;;;;;;;6.80;2.50;;;;;;;;;;5093946;28;20068;-73
2022/04/14 14:59:26;;;;;;;3.95;1.83;;;;;;;;;;5075364;28;20024;-73
2022/04/14 15:01:52;;;;;;;2.85;1.58;;;;;;;;;;5093934;28;20036;-74
2022/04/14 15:04:19;;;;;;;3.33;1.65;;;;;;;;;;5093790;28;20031;-73
2022/04/14 15:06:47;;;;;;;3.55;1.65;;;;;;;;;;5093503;28;20082;-72
2022/04/14 15:09:13;;;;;;;3.95;1.67;;;;;;;;;;5093786;28;20119;-72
2022/04/14 15:11:40;;;;;;;4.07;1.20;;;;;;;;;;5093222;28;20036;-73
2022/04/14 15:14:08;;;;;;;4.30;1.98;;;;;;;;;;5093676;28;20016;-72
2022/04/14 15:16:35;;;;;;;5.55;1.80;;;;;;;;;;5093628;28;20495;-72
2022/04/14 15:19:01;;;;;;;3.33;1.70;;;;;;;;;;5093372;28;20028;-73
2022/04/14 15:21:27;;;;;;;2.50;1.52;;;;;;;;;;5093762;28;20020;-73
2022/04/14 15:23:57;;;;;;;3.78;1.80;;;;;;;;;;5094172;28;20046;-73
2022/04/14 15:26:23;;;;;;;2.42;1.30;;;;;;;;;;5093134;28;20484;-73
2022/04/14 15:28:50;;;;;;;3.00;1.60;;;;;;;;;;5093485;28;20024;-73
2022/04/14 15:31:17;;;;;;;4.35;2.00;;;;;;;;;;5093273;28;20119;-72
2022/04/14 15:33:43;;;;;;;5.25;2.03;;;;;;;;;;5093010;28;20055;-73
2022/04/14 15:36:10;;;;;;;4.32;2.00;;;;;;;;;;5093418;28;20030;-73
2022/04/14 15:38:37;;;;;;;2.75;1.65;;;;;;;;;;5093440;28;20032;-73
2022/04/14 15:41:04;;;;;;;3.72;1.80;;;;;;;;;;5093119;28;20024;-73
2022/04/14 15:43:31;;;;;;;4.10;1.90;;;;;;;;;;5075126;28;20473;-74
2022/04/14 15:45:57;;;;;;;3.95;1.83;;;;;;;;;;5093430;28;20047;-73
2022/04/14 15:48:23;;;;;;;2.78;1.58;;;;;;;;;;5092859;28;20493;-73
2022/04/14 15:50:50;;;;;;;2.95;1.10;;;;;;;;;;5093526;28;20036;-73
2022/04/14 15:53:18;;;;;;;2.22;1.30;;;;;;;;;;5093298;28;20028;-74
2022/04/14 15:55:48;;;;;;;2.30;1.17;;;;;;;;;;5092951;28;20073;-74
2022/04/14 15:58:15;;;;;;;3.35;1.60;;;;;;;;;;5093168;28;20059;-73
2022/04/14 16:00:41;;;;;;;4.15;1.98;;;;;;;;;;5093198;28;20532;-74
2022/04/14 16:03:13;;;;;;;3.45;2.00;;;;;;;;;;5092806;28;20020;-74
2022/04/14 16:05:40;;;;;;;4.97;2.28;;;;;;;;;;5093281;28;20024;-74
2022/04/14 16:08:07;;;;;;;2.55;1.83;;;;;;;;;;5092874;28;20103;-73
2022/04/14 16:13:18;;;;;;;4.90;1.80;;;;;;;;;;5093407;28;20078;-75
2022/04/14 16:15:44;;;;;;;6.25;1.90;;;;;;;;;;5092733;28;20024;-74
2022/04/14 16:18:10;;;;;;;4.18;2.35;;;;;;;;;;5094827;28;20031;-73
2022/04/14 16:20:37;;;;;;;8.70;3.67;;;;;;;;;;5096957;28;20388;-74
2022/04/14 16:23:03;;;;;;;6.72;3.08;;;;;;;;;;5096460;28;20031;-73
2022/04/14 16:25:30;;;;;;;4.90;2.25;;;;;;;;;;5096776;28;20044;-73
2022/04/14 16:27:56;;;;;;;8.27;2.72;;;;;;;;;;5097216;28;20471;-74
2022/04/14 16:30:23;;;;;;;6.05;2.78;;;;;;;;;;5096150;28;20032;-73
2022/04/14 16:32:51;;;;;;;9.50;2.65;;;;;;;;;;5096508;28;20115;-73
2022/04/14 16:35:18;;;;;;;3.83;2.08;;;;;;;;;;5078426;28;20048;-73
2022/04/14 16:37:44;;;;;;;5.10;2.35;;;;;;;;;;5096115;28;20028;-73
2022/04/14 16:40:13;;;;;;;6.10;2.42;;;;;;;;;;5096570;28;20091;-76
2022/04/14 16:42:39;;;;;;;5.40;2.42;;;;;;;;;;5078151;28;20031;-74
2022/04/14 16:45:06;;;;;;;5.47;2.92;;;;;;;;;;5096068;28;20499;-75
2022/04/14 16:47:32;;;;;;;10.25;4.32;;;;;;;;;;5096315;28;20024;-74
2022/04/14 16:51:10;;;;;;;;;;;;;;;;;;5111669;27;20404;-74
2022/04/14 16:53:36;;;;;;;;;;;;;;;;;;5110494;28;20006;-74